createdAt,value
2022-09-01T00:02:08.988Z,23.80
2022-09-01T00:04:58.840Z,23.80
2022-09-01T00:07:45.070Z,23.60
2022-09-01T00:10:33.136Z,23.80
2022-09-01T00:13:18.765Z,24.00
2022-09-01T00:16:04.422Z,24.00
2022-09-01T00:18:54.300Z,23.60
2022-09-01T00:21:43.660Z,23.70
2022-09-01T00:24:29.651Z,24.00
2022-09-01T00:27:15.280Z,24.00
2022-09-01T00:30:01.445Z,24.00
2022-09-01T00:32:47.480Z,24.10
2022-09-01T00:35:37.112Z,23.30
2022-09-01T00:38:23.280Z,23.30
2022-09-01T00:41:09.242Z,23.00
2022-09-01T00:43:59.166Z,23.60
2022-09-01T00:46:54.892Z,23.10
2022-09-01T00:49:46.647Z,23.00
2022-09-01T00:52:41.584Z,23.10
2022-09-01T00:55:30.787Z,23.20
2022-09-01T00:58:20.000Z,23.20
2022-09-01T01:01:09.036Z,22.00
2022-09-01T01:03:55.030Z,22.70
2022-09-01T01:06:49.750Z,22.00
2022-09-01T01:09:40.127Z,21.80
2022-09-01T01:12:31.791Z,22.00
2022-09-01T01:15:18.736Z,22.20
2022-09-01T01:18:04.188Z,22.60
2022-09-01T01:21:24.889Z,22.60
2022-09-01T01:24:27.237Z,22.70
2022-09-01T01:27:13.483Z,22.60
2022-09-01T01:30:04.980Z,22.50
2022-09-01T01:32:57.867Z,22.50
2022-09-01T01:35:45.069Z,22.80
2022-09-01T01:38:31.244Z,23.30
2022-09-01T01:41:22.010Z,23.50
2022-09-01T01:44:08.641Z,23.30
2022-09-01T01:46:55.676Z,23.30
2022-09-01T01:49:45.051Z,23.30
2022-09-01T01:52:30.785Z,23.80
2022-09-01T01:55:19.384Z,23.80
2022-09-01T01:58:05.332Z,23.60
2022-09-01T02:00:52.730Z,23.70
2022-09-01T02:03:39.070Z,23.60
2022-09-01T02:06:26.150Z,23.40
2022-09-01T02:09:17.249Z,23.30
2022-09-01T02:12:02.641Z,23.30
2022-09-01T02:14:50.764Z,23.30
2022-09-01T02:17:38.141Z,23.10
2022-09-01T02:20:24.886Z,23.00
2022-09-01T02:23:11.624Z,23.10
2022-09-01T02:26:16.142Z,23.20
2022-09-01T02:29:07.185Z,23.00
2022-09-01T02:31:57.553Z,22.80
2022-09-01T02:34:43.631Z,22.80
2022-09-01T02:37:29.655Z,22.80
2022-09-01T02:40:16.001Z,22.60
2022-09-01T02:43:01.777Z,22.70
2022-09-01T02:45:54.706Z,22.90
2022-09-01T02:48:42.783Z,23.20
2022-09-01T02:51:28.878Z,22.80
2022-09-01T02:54:17.191Z,22.40
2022-09-01T02:57:04.060Z,22.30
2022-09-01T02:59:50.265Z,22.10
2022-09-01T03:02:37.112Z,22.10
2022-09-01T03:05:28.666Z,22.10
2022-09-01T03:08:16.197Z,22.10
2022-09-01T03:11:02.975Z,21.90
2022-09-01T03:13:48.795Z,21.80
2022-09-01T03:16:35.467Z,21.80
2022-09-01T03:19:21.221Z,21.90
2022-09-01T03:22:07.028Z,21.90
2022-09-01T03:24:52.482Z,21.90
2022-09-01T03:27:39.164Z,22.00
2022-09-01T03:30:24.761Z,21.90
2022-09-01T03:33:10.903Z,21.70
2022-09-01T03:35:57.229Z,21.80
2022-09-01T03:38:44.082Z,22.10
2022-09-01T03:41:31.706Z,22.60
2022-09-01T03:44:17.388Z,22.80
2022-09-01T03:47:04.311Z,23.00
2022-09-01T03:49:51.833Z,23.20
2022-09-01T03:52:41.113Z,23.20
2022-09-01T03:55:32.480Z,22.90
2022-09-01T03:58:19.653Z,23.20
2022-09-01T04:01:05.488Z,23.10
2022-09-01T04:03:54.645Z,22.70
2022-09-01T04:06:46.507Z,22.30
2022-09-01T04:09:35.203Z,22.00
2022-09-01T04:12:20.660Z,22.00
2022-09-01T04:15:10.936Z,22.20
2022-09-01T04:18:09.916Z,22.20
2022-09-01T04:20:59.279Z,22.00
2022-09-01T04:23:46.513Z,21.90
2022-09-01T04:26:33.867Z,21.90
2022-09-01T04:29:27.553Z,22.00
2022-09-01T04:32:15.806Z,21.70
2022-09-01T04:35:07.795Z,22.00
2022-09-01T04:37:54.068Z,22.30
2022-09-01T04:40:40.316Z,22.70
2022-09-01T04:43:25.966Z,22.90
2022-09-01T04:46:14.489Z,22.90
2022-09-01T04:49:01.237Z,23.00
2022-09-01T04:51:53.643Z,23.00
2022-09-01T04:54:40.129Z,22.90
2022-09-01T04:57:27.713Z,23.00
2022-09-01T05:00:32.259Z,23.10
2022-09-01T05:03:21.540Z,23.20
2022-09-01T05:06:18.775Z,23.30
2022-09-01T05:09:13.375Z,23.30
2022-09-01T05:12:21.957Z,23.20
2022-09-01T05:15:09.596Z,23.20
2022-09-01T05:17:56.359Z,23.10
2022-09-01T05:20:43.673Z,23.00
2022-09-01T05:23:30.811Z,22.90
2022-09-01T05:26:20.881Z,22.90
2022-09-01T05:29:14.084Z,22.70
2022-09-01T05:32:00.451Z,23.00
2022-09-01T05:34:46.377Z,22.90
2022-09-01T05:37:39.806Z,23.10
2022-09-01T05:40:25.664Z,23.20
2022-09-01T05:43:14.842Z,23.30
2022-09-01T05:46:07.268Z,23.40
2022-09-01T05:48:55.892Z,23.40
2022-09-01T05:51:45.795Z,23.50
2022-09-01T05:54:34.890Z,23.80
2022-09-01T05:57:35.866Z,24.00
2022-09-01T06:00:21.902Z,24.10
2022-09-01T06:03:09.383Z,24.20
2022-09-01T06:06:05.590Z,24.20
2022-09-01T06:08:52.798Z,24.30
2022-09-01T06:11:38.548Z,24.30
2022-09-01T06:14:24.765Z,24.30
2022-09-01T06:17:11.913Z,24.50
2022-09-01T06:19:58.108Z,24.60
2022-09-01T06:22:45.619Z,24.70
2022-09-01T06:25:31.627Z,24.80
2022-09-01T06:28:23.150Z,24.70
2022-09-01T06:31:09.624Z,24.90
2022-09-01T06:33:56.152Z,25.00
2022-09-01T06:36:43.461Z,24.40
2022-09-01T06:39:29.562Z,24.10
2022-09-01T06:42:15.953Z,24.00
2022-09-01T06:45:16.649Z,24.30
2022-09-01T06:48:17.370Z,24.80
2022-09-01T06:51:20.155Z,25.30
2022-09-01T06:54:28.454Z,25.50
2022-09-01T07:00:26.617Z,24.60
2022-09-01T07:03:14.688Z,24.70
2022-09-01T07:10:05.971Z,24.70
2022-09-01T07:13:05.358Z,24.30
2022-09-01T07:19:03.807Z,24.50
2022-09-01T07:22:07.681Z,24.80
2022-09-01T07:25:12.300Z,24.60
2022-09-01T07:28:09.531Z,25.40
2022-09-01T07:30:56.804Z,24.70
2022-09-01T07:33:53.841Z,24.10
2022-09-01T07:39:50.174Z,24.10
2022-09-01T07:43:12.901Z,24.60
2022-09-01T07:49:32.281Z,24.60
2022-09-01T07:52:22.775Z,24.60
2022-09-01T07:55:16.782Z,24.60
2022-09-01T07:58:02.397Z,24.60
2022-09-01T08:00:49.858Z,24.70
2022-09-01T08:03:36.866Z,24.90
2022-09-01T08:06:28.035Z,24.60
2022-09-01T08:09:33.049Z,24.50
2022-09-01T08:12:28.936Z,25.20
2022-09-01T08:18:22.888Z,25.60
2022-09-01T08:21:12.723Z,26.40
2022-09-01T08:24:24.418Z,27.30
2022-09-01T08:27:10.557Z,28.10
2022-09-01T08:29:56.029Z,28.40
2022-09-01T08:32:44.649Z,26.90
2022-09-01T08:35:31.101Z,26.80
2022-09-01T08:38:17.693Z,26.80
2022-09-01T08:41:05.748Z,27.10
2022-09-01T08:44:17.066Z,25.90
2022-09-01T08:47:08.523Z,26.00
2022-09-01T08:50:00.468Z,26.10
2022-09-01T08:53:15.958Z,26.10
2022-09-01T08:56:02.496Z,25.80
2022-09-01T08:58:48.947Z,26.90
2022-09-01T09:02:37.155Z,27.10
2022-09-01T09:05:34.257Z,27.00
2022-09-01T09:08:56.706Z,27.00
2022-09-01T09:12:01.584Z,26.80
2022-09-01T09:15:07.636Z,26.70
2022-09-01T09:18:05.379Z,27.00
2022-09-01T09:21:24.433Z,26.70
2022-09-01T09:24:11.537Z,25.70
2022-09-01T09:27:00.365Z,25.60
2022-09-01T09:29:58.373Z,25.80
2022-09-01T09:33:48.568Z,26.50
2022-09-01T09:36:37.691Z,27.70
2022-09-01T09:39:23.579Z,26.90
2022-09-01T09:42:15.197Z,26.60
2022-09-01T09:45:01.231Z,26.30
2022-09-01T09:47:47.819Z,26.20
2022-09-01T09:50:38.581Z,26.60
2022-09-01T09:53:26.244Z,25.90
2022-09-01T09:56:25.685Z,26.00
2022-09-01T09:59:53.657Z,26.10
2022-09-01T10:02:32.735Z,26.20
2022-09-01T10:05:38.991Z,27.70
2022-09-01T10:08:29.595Z,28.10
2022-09-01T10:11:36.190Z,28.10
2022-09-01T10:14:51.951Z,27.90
2022-09-01T10:17:43.645Z,27.30
2022-09-01T10:20:29.605Z,27.50
2022-09-01T10:23:15.744Z,27.70
2022-09-01T10:26:09.502Z,27.10
2022-09-01T10:29:12.139Z,27.50
2022-09-01T10:32:30.751Z,27.70
2022-09-01T10:35:11.030Z,26.90
2022-09-01T10:38:00.119Z,27.90
2022-09-01T10:41:07.855Z,28.50
2022-09-01T10:43:58.688Z,29.10
2022-09-01T10:46:51.228Z,28.80
2022-09-01T10:49:47.123Z,30.20
2022-09-01T10:52:45.111Z,28.60
2022-09-01T10:55:48.091Z,28.20
2022-09-01T11:01:53.403Z,30.80
2022-09-01T11:04:40.376Z,29.00
2022-09-01T11:07:58.162Z,28.30
2022-09-01T11:10:51.455Z,28.40
2022-09-01T11:13:50.287Z,28.90
2022-09-01T11:16:50.062Z,29.00
2022-09-01T11:19:45.120Z,29.50
2022-09-01T11:22:39.540Z,30.00
2022-09-01T11:25:40.210Z,29.70
2022-09-01T11:28:31.817Z,30.70
2022-09-01T11:31:42.360Z,30.90
2022-09-01T11:34:29.045Z,31.20
2022-09-01T11:37:21.941Z,30.80
2022-09-01T11:40:10.065Z,31.30
2022-09-01T11:42:58.900Z,30.30
2022-09-01T11:46:02.794Z,29.60
2022-09-01T11:48:51.726Z,30.20
2022-09-01T11:51:48.398Z,30.80
2022-09-01T11:54:41.423Z,32.60
2022-09-01T11:57:38.776Z,33.10
2022-09-01T12:00:40.296Z,32.60
2022-09-01T12:03:30.230Z,30.80
2022-09-01T12:06:23.556Z,30.30
2022-09-01T12:09:09.246Z,30.50
2022-09-01T12:11:54.975Z,30.30
2022-09-01T12:15:04.467Z,29.40
2022-09-01T12:17:46.688Z,29.30
2022-09-01T12:20:38.687Z,29.70
2022-09-01T12:23:38.027Z,28.70
2022-09-01T12:26:29.762Z,29.90
2022-09-01T12:29:17.240Z,30.30
2022-09-01T12:32:04.212Z,30.20
2022-09-01T12:35:11.860Z,29.80
2022-09-01T12:38:20.475Z,29.70
2022-09-01T12:41:32.105Z,29.90
2022-09-01T12:44:31.800Z,30.30
2022-09-01T12:47:36.187Z,30.80
2022-09-01T12:50:22.300Z,31.20
2022-09-01T12:53:17.558Z,30.90
2022-09-01T12:56:06.825Z,29.90
2022-09-01T12:59:15.700Z,29.50
2022-09-01T13:02:37.999Z,29.50
2022-09-01T13:05:32.771Z,29.30
2022-09-01T13:08:22.756Z,29.10
2022-09-01T13:11:11.523Z,29.40
2022-09-01T13:13:57.299Z,29.10
2022-09-01T13:16:43.766Z,28.10
2022-09-01T13:19:31.197Z,28.50
2022-09-01T13:22:18.755Z,28.30
2022-09-01T13:25:07.495Z,28.50
2022-09-01T13:27:54.853Z,28.50
2022-09-01T13:30:41.331Z,28.50
2022-09-01T13:33:28.310Z,28.40
2022-09-01T13:39:21.450Z,28.00
2022-09-01T13:42:07.518Z,28.10
2022-09-01T13:44:55.395Z,28.30
2022-09-01T13:53:56.169Z,27.90
2022-09-01T13:56:42.817Z,27.80
2022-09-01T13:59:30.289Z,28.20
2022-09-01T14:02:15.844Z,27.90
2022-09-01T14:05:02.852Z,27.50
2022-09-01T14:07:49.254Z,27.40
2022-09-01T14:10:39.691Z,27.40
2022-09-01T14:13:26.972Z,27.70
2022-09-01T14:16:14.682Z,27.50
2022-09-01T14:19:00.721Z,27.60
2022-09-01T14:21:47.376Z,27.70
2022-09-01T14:24:38.843Z,27.70
2022-09-01T14:27:26.353Z,27.90
2022-09-01T14:30:16.075Z,28.00
2022-09-01T14:33:03.727Z,27.80
2022-09-01T14:35:50.098Z,27.50
2022-09-01T14:38:36.078Z,27.60
2022-09-01T14:41:25.768Z,27.70
2022-09-01T14:44:13.102Z,27.80
2022-09-01T14:46:59.041Z,27.60
2022-09-01T14:49:45.167Z,27.60
2022-09-01T14:52:31.105Z,27.90
2022-09-01T14:55:17.204Z,27.70
2022-09-01T14:58:03.903Z,27.60
2022-09-01T15:00:50.660Z,27.70
2022-09-01T15:03:36.526Z,27.60
2022-09-01T15:06:23.248Z,27.60
2022-09-01T15:09:09.308Z,27.70
2022-09-01T15:11:55.083Z,28.10
2022-09-01T15:14:41.188Z,28.10
2022-09-01T15:17:29.033Z,28.20
2022-09-01T15:20:33.720Z,27.90
2022-09-01T15:23:22.202Z,26.50
2022-09-01T15:26:08.014Z,27.20
2022-09-01T15:28:53.965Z,27.10
2022-09-01T15:31:41.274Z,27.50
2022-09-01T15:34:27.271Z,27.30
2022-09-01T15:37:12.711Z,27.40
2022-09-01T15:39:58.312Z,27.50
2022-09-01T15:42:44.454Z,27.20
2022-09-01T15:45:30.057Z,27.30
2022-09-01T15:48:16.064Z,27.30
2022-09-01T15:51:30.602Z,27.50
2022-09-01T15:54:19.627Z,27.20
2022-09-01T15:57:06.472Z,27.30
2022-09-01T15:59:54.848Z,27.20
2022-09-01T16:02:40.283Z,27.10
2022-09-01T16:05:26.184Z,27.20
2022-09-01T16:08:12.245Z,27.20
2022-09-01T16:10:58.425Z,27.30
2022-09-01T16:13:54.070Z,27.30
2022-09-01T16:16:51.926Z,27.10
2022-09-01T16:19:54.742Z,27.20
2022-09-01T16:22:53.622Z,27.20
2022-09-01T16:25:40.114Z,27.10
2022-09-01T16:28:30.279Z,27.10
2022-09-01T16:31:29.483Z,27.10
2022-09-01T16:34:19.219Z,27.00
2022-09-01T16:37:26.034Z,27.00
2022-09-01T16:40:33.611Z,26.90
2022-09-01T16:43:32.680Z,27.30
2022-09-01T16:46:45.552Z,27.20
2022-09-01T16:50:05.170Z,26.90
2022-09-01T16:53:16.721Z,26.70
2022-09-01T16:56:20.457Z,26.80
2022-09-01T16:59:20.998Z,26.80
2022-09-01T17:02:15.907Z,26.80
2022-09-01T17:05:24.500Z,26.70
2022-09-01T17:08:21.578Z,26.80
2022-09-01T17:11:18.958Z,26.60
2022-09-01T17:14:09.826Z,26.30
2022-09-01T17:17:11.824Z,26.30
2022-09-01T17:19:57.943Z,26.30
2022-09-01T17:23:00.614Z,26.20
2022-09-01T17:25:54.103Z,26.10
2022-09-01T17:28:47.968Z,26.00
2022-09-01T17:31:41.761Z,26.00
2022-09-01T17:34:46.937Z,25.90
2022-09-01T17:38:04.967Z,25.80
2022-09-01T17:41:16.253Z,25.60
2022-09-01T17:44:18.356Z,25.60
2022-09-01T17:47:23.399Z,25.50
2022-09-01T17:50:09.680Z,25.40
2022-09-01T17:53:27.553Z,25.30
2022-09-01T17:56:39.910Z,25.40
2022-09-01T18:00:08.199Z,25.40
2022-09-01T18:03:26.872Z,25.40
2022-09-01T18:06:35.383Z,25.20
2022-09-01T18:09:25.179Z,25.00
2022-09-01T18:12:17.108Z,24.90
2022-09-01T18:15:10.939Z,24.90
2022-09-01T18:18:17.843Z,24.90
2022-09-01T18:21:12.275Z,24.80
2022-09-01T18:24:16.124Z,24.80
2022-09-01T18:27:02.782Z,24.60
2022-09-01T18:29:50.940Z,24.70
2022-09-01T18:33:08.170Z,24.60
2022-09-01T18:35:53.663Z,24.70
2022-09-01T18:38:54.323Z,24.50
2022-09-01T18:41:58.612Z,24.50
2022-09-01T18:45:29.612Z,24.50
2022-09-01T18:48:37.024Z,24.40
2022-09-01T18:52:00.527Z,24.40
2022-09-01T18:55:16.816Z,24.40
2022-09-01T18:58:08.803Z,24.20
2022-09-01T19:01:05.904Z,24.10
2022-09-01T19:04:10.208Z,24.00
2022-09-01T19:07:13.804Z,24.00
2022-09-01T19:10:07.003Z,23.90
2022-09-01T19:13:52.631Z,23.80
2022-09-01T19:17:02.077Z,23.70
2022-09-01T19:20:16.799Z,23.70
2022-09-01T19:23:45.439Z,23.80
2022-09-01T19:26:42.442Z,23.60
2022-09-01T19:29:37.779Z,23.60
2022-09-01T19:32:37.804Z,23.50
2022-09-01T19:35:26.652Z,23.60
2022-09-01T19:41:40.140Z,23.40
2022-09-01T19:44:57.984Z,23.30
2022-09-01T19:48:05.370Z,23.40
2022-09-01T19:51:22.363Z,23.30
2022-09-01T19:55:01.861Z,23.30
2022-09-01T19:58:16.777Z,23.20
2022-09-01T20:01:05.973Z,23.20
2022-09-01T20:03:57.823Z,23.40
2022-09-01T20:06:51.093Z,23.70
2022-09-01T20:09:59.800Z,23.20
2022-09-01T20:13:09.895Z,23.10
2022-09-01T20:16:04.154Z,22.90
2022-09-01T20:19:16.388Z,22.80
2022-09-01T20:22:21.024Z,22.90
2022-09-01T20:25:14.674Z,22.80
2022-09-01T20:28:33.652Z,22.90
2022-09-01T20:31:47.164Z,22.70
2022-09-01T20:34:38.455Z,22.80
2022-09-01T20:37:37.513Z,22.70
2022-09-01T20:40:44.135Z,22.60
2022-09-01T20:43:51.332Z,22.60
2022-09-01T20:46:42.174Z,22.60
2022-09-01T20:49:39.042Z,22.60
2022-09-01T20:52:50.411Z,22.50
2022-09-01T20:56:00.808Z,22.40
2022-09-01T20:59:18.424Z,22.20
2022-09-01T21:02:48.627Z,22.10
2022-09-01T21:05:56.237Z,22.20
2022-09-01T21:09:44.386Z,22.10
2022-09-01T21:12:55.673Z,22.10
2022-09-01T21:16:30.324Z,22.00
2022-09-01T21:19:35.677Z,22.20
2022-09-01T21:22:22.537Z,22.20
2022-09-01T21:25:08.757Z,22.20
2022-09-01T21:28:03.945Z,22.00
2022-09-01T21:30:54.111Z,22.00
2022-09-01T21:33:40.106Z,21.90
2022-09-01T21:36:25.779Z,21.90
2022-09-01T21:39:11.577Z,21.80
2022-09-01T21:41:58.077Z,21.70
2022-09-01T21:44:44.842Z,21.80
2022-09-01T21:47:32.275Z,21.90
2022-09-01T21:50:21.064Z,22.00
2022-09-01T21:53:08.478Z,21.40
2022-09-01T21:55:54.324Z,21.80
2022-09-01T21:58:40.483Z,21.80
2022-09-01T22:01:31.048Z,21.90
2022-09-01T22:04:18.261Z,21.90
2022-09-01T22:07:06.112Z,22.00
2022-09-01T22:09:51.854Z,21.90
2022-09-01T22:12:38.437Z,22.00
2022-09-01T22:15:25.618Z,21.90
2022-09-01T22:18:12.128Z,21.70
2022-09-01T22:21:03.852Z,21.60
2022-09-01T22:23:49.483Z,21.60
2022-09-01T22:26:35.941Z,21.60
2022-09-01T22:29:21.391Z,21.60
2022-09-01T22:32:06.919Z,21.60
2022-09-01T22:34:52.333Z,21.40
2022-09-01T22:37:39.731Z,21.40
2022-09-01T22:40:25.423Z,21.40
2022-09-01T22:43:10.902Z,21.20
2022-09-01T22:45:58.252Z,21.10
2022-09-01T22:48:44.390Z,21.10
2022-09-01T22:51:30.081Z,21.10
2022-09-01T22:54:16.294Z,21.00
2022-09-01T22:57:02.743Z,21.00
2022-09-01T22:59:48.259Z,21.10
2022-09-01T23:02:34.942Z,21.10
2022-09-01T23:05:22.193Z,21.00
2022-09-01T23:08:08.257Z,21.00
2022-09-01T23:10:54.043Z,21.00
2022-09-01T23:13:39.681Z,20.90
2022-09-01T23:16:26.369Z,20.90
2022-09-01T23:19:12.076Z,20.90
2022-09-01T23:21:57.799Z,21.00
2022-09-01T23:24:43.229Z,21.10
2022-09-01T23:27:28.598Z,21.20
2022-09-01T23:30:15.367Z,21.50
2022-09-01T23:33:01.159Z,21.70
2022-09-01T23:35:52.817Z,21.80
2022-09-01T23:38:38.489Z,21.70
2022-09-01T23:41:29.381Z,21.60
2022-09-01T23:44:15.935Z,21.60
2022-09-01T23:47:01.548Z,21.40
2022-09-01T23:49:47.127Z,21.40
2022-09-01T23:52:32.925Z,21.90
2022-09-01T23:55:19.398Z,22.10
2022-09-01T23:58:05.139Z,22.10
